createdAt,value
2023-02-08T00:02:06.148Z,35.70
2023-02-08T00:04:33.108Z,35.30
2023-02-08T00:06:59.892Z,35.17
2023-02-08T00:09:26.704Z,37.03
2023-02-08T00:11:53.584Z,37.07
2023-02-08T00:14:20.787Z,38.23
2023-02-08T00:16:47.952Z,38.17
2023-02-08T00:19:15.229Z,37.80
2023-02-08T00:21:42.062Z,35.37
2023-02-08T00:24:09.781Z,38.83
2023-02-08T00:26:37.649Z,38.87
2023-02-08T00:29:05.644Z,37.00
2023-02-08T00:31:35.398Z,38.53
2023-02-08T00:34:04.184Z,35.73
2023-02-08T00:36:32.125Z,37.33
2023-02-08T00:38:59.751Z,37.50
2023-02-08T00:41:26.544Z,37.37
2023-02-08T00:43:54.449Z,38.30
2023-02-08T00:46:21.906Z,38.77
2023-02-08T00:48:49.847Z,39.30
2023-02-08T00:51:18.481Z,40.80
2023-02-08T00:53:46.438Z,39.13
2023-02-08T00:56:15.815Z,37.97
2023-02-08T00:58:43.992Z,39.30
2023-02-08T01:01:11.121Z,38.83
2023-02-08T01:03:40.238Z,40.70
2023-02-08T01:06:08.741Z,39.73
2023-02-08T01:08:35.897Z,40.20
2023-02-08T01:11:08.892Z,39.80
2023-02-08T01:13:36.804Z,40.77
2023-02-08T01:16:09.371Z,42.47
2023-02-08T01:18:37.711Z,40.17
2023-02-08T01:21:15.157Z,41.63
2023-02-08T01:23:43.055Z,38.87
2023-02-08T01:26:10.351Z,41.63
2023-02-08T01:28:38.595Z,41.43
2023-02-08T01:31:16.037Z,42.93
2023-02-08T01:33:43.018Z,41.50
2023-02-08T01:36:10.062Z,39.03
2023-02-08T01:38:37.797Z,37.97
2023-02-08T01:41:06.380Z,37.90
2023-02-08T01:43:56.467Z,36.30
2023-02-08T01:46:23.406Z,36.70
2023-02-08T01:48:51.145Z,34.80
2023-02-08T01:51:22.032Z,36.40
2023-02-08T01:53:50.924Z,35.47
2023-02-08T01:56:23.481Z,36.57
2023-02-08T01:58:52.326Z,37.40
2023-02-08T02:01:19.145Z,36.47
2023-02-08T02:03:46.066Z,37.03
2023-02-08T02:06:17.249Z,35.77
2023-02-08T02:08:55.882Z,34.83
2023-02-08T02:11:22.727Z,32.87
2023-02-08T02:13:54.224Z,32.40
2023-02-08T02:16:21.112Z,31.13
2023-02-08T02:18:49.177Z,31.00
2023-02-08T02:21:22.218Z,31.13
2023-02-08T02:24:01.277Z,30.47
2023-02-08T02:26:47.559Z,31.30
2023-02-08T02:29:37.431Z,30.00
2023-02-08T02:32:17.526Z,28.30
2023-02-08T02:35:07.961Z,29.50
2023-02-08T02:38:01.175Z,30.53
2023-02-08T02:40:28.141Z,30.87
2023-02-08T02:43:18.986Z,30.37
2023-02-08T02:45:45.885Z,31.47
2023-02-08T02:48:12.657Z,30.60
2023-02-08T02:50:44.880Z,30.50
2023-02-08T02:53:18.122Z,30.13
2023-02-08T02:55:47.187Z,29.63
2023-02-08T02:58:16.742Z,31.83
2023-02-08T03:00:43.611Z,32.37
2023-02-08T03:03:21.657Z,30.57
2023-02-08T03:05:48.828Z,32.40
2023-02-08T03:08:15.701Z,31.33
2023-02-08T03:10:48.554Z,32.37
2023-02-08T03:13:18.383Z,30.17
2023-02-08T03:16:04.183Z,29.10
2023-02-08T03:18:34.010Z,29.70
2023-02-08T03:21:06.651Z,28.30
2023-02-08T03:23:40.766Z,28.17
2023-02-08T03:26:13.779Z,28.27
2023-02-08T03:28:49.848Z,29.53
2023-02-08T03:31:16.775Z,30.60
2023-02-08T03:33:46.692Z,29.40
2023-02-08T03:36:28.759Z,31.67
2023-02-08T03:38:56.174Z,30.40
2023-02-08T03:41:26.362Z,30.10
2023-02-08T03:43:58.334Z,30.57
2023-02-08T03:46:26.358Z,31.47
2023-02-08T03:49:01.328Z,29.50
2023-02-08T03:51:29.732Z,30.43
2023-02-08T03:53:58.027Z,30.90
2023-02-08T03:56:36.031Z,30.60
2023-02-08T03:59:05.895Z,29.70
2023-02-08T04:01:37.053Z,30.60
2023-02-08T04:04:03.972Z,30.70
2023-02-08T04:06:31.133Z,32.13
2023-02-08T04:08:57.928Z,31.63
2023-02-08T04:11:24.712Z,32.87
2023-02-08T04:13:51.576Z,34.57
2023-02-08T04:16:18.440Z,32.83
2023-02-08T04:18:45.298Z,34.17
2023-02-08T04:21:12.194Z,31.97
2023-02-08T04:23:38.982Z,36.07
2023-02-08T04:26:07.906Z,35.37
2023-02-08T04:28:35.028Z,32.80
2023-02-08T04:31:02.027Z,33.50
2023-02-08T04:33:29.169Z,37.33
2023-02-08T04:35:55.977Z,34.67
2023-02-08T04:38:22.822Z,34.37
2023-02-08T04:40:49.966Z,34.20
2023-02-08T04:43:16.716Z,35.10
2023-02-08T04:45:43.513Z,36.80
2023-02-08T04:48:11.927Z,35.83
2023-02-08T04:50:39.169Z,34.67
2023-02-08T04:53:06.900Z,39.20
2023-02-08T04:55:34.398Z,36.50
2023-02-08T04:58:01.364Z,34.77
2023-02-08T05:00:28.292Z,33.83
2023-02-08T05:02:55.742Z,33.40
2023-02-08T05:05:22.710Z,33.83
2023-02-08T05:07:49.658Z,34.00
2023-02-08T05:10:16.621Z,33.00
2023-02-08T05:12:45.919Z,32.80
2023-02-08T05:15:13.076Z,37.63
2023-02-08T05:17:40.046Z,39.13
2023-02-08T05:20:07.740Z,36.20
2023-02-08T05:22:34.661Z,31.97
2023-02-08T05:25:01.727Z,31.30
2023-02-08T05:27:28.617Z,29.03
2023-02-08T05:29:56.777Z,28.77
2023-02-08T05:32:24.910Z,30.17
2023-02-08T05:34:51.801Z,30.53
2023-02-08T05:37:18.870Z,27.63
2023-02-08T05:39:45.717Z,29.90
2023-02-08T05:42:12.633Z,41.40
2023-02-08T05:44:39.531Z,32.50
2023-02-08T05:47:06.325Z,33.33
2023-02-08T05:49:33.336Z,33.10
2023-02-08T05:52:00.120Z,32.43
2023-02-08T05:54:27.017Z,31.83
2023-02-08T05:56:54.160Z,31.23
2023-02-08T05:59:20.934Z,33.07
2023-02-08T06:01:47.755Z,33.17
2023-02-08T06:04:14.531Z,35.27
2023-02-08T06:06:41.342Z,35.40
2023-02-08T06:09:08.358Z,33.00
2023-02-08T06:11:36.316Z,29.53
2023-02-08T06:14:03.471Z,29.03
2023-02-08T06:16:30.489Z,31.00
2023-02-08T06:18:57.886Z,39.83
2023-02-08T06:21:24.811Z,31.90
2023-02-08T06:23:51.717Z,30.40
2023-02-08T06:26:18.489Z,31.27
2023-02-08T06:28:45.649Z,31.80
2023-02-08T06:31:12.462Z,34.13
2023-02-08T06:33:39.251Z,48.97
2023-02-08T06:36:07.241Z,62.53
2023-02-08T06:38:34.007Z,66.17
2023-02-08T06:41:00.838Z,31.13
2023-02-08T06:43:27.688Z,43.07
2023-02-08T06:45:54.563Z,43.73
2023-02-08T06:48:21.436Z,36.03
2023-02-08T06:50:48.261Z,34.73
2023-02-08T06:53:15.140Z,35.60
2023-02-08T06:55:42.015Z,34.60
2023-02-08T06:58:08.839Z,34.03
2023-02-08T07:00:35.771Z,38.27
2023-02-08T07:03:02.569Z,29.93
2023-02-08T07:05:29.418Z,32.00
2023-02-08T07:07:56.328Z,33.80
2023-02-08T07:10:23.226Z,27.33
2023-02-08T07:12:50.061Z,28.87
2023-02-08T07:15:17.100Z,33.50
2023-02-08T07:17:43.941Z,37.17
2023-02-08T07:20:11.879Z,38.00
2023-02-08T07:22:39.163Z,31.30
2023-02-08T07:25:07.472Z,31.60
2023-02-08T07:27:34.430Z,33.37
2023-02-08T07:30:01.208Z,36.43
2023-02-08T07:32:28.178Z,34.27
2023-02-08T07:34:54.935Z,32.90
2023-02-08T07:37:21.792Z,53.43
2023-02-08T07:39:48.731Z,57.10
2023-02-08T07:42:15.470Z,57.60
2023-02-08T07:44:53.521Z,69.60
2023-02-08T07:47:20.587Z,64.77
2023-02-08T07:49:47.386Z,54.63
2023-02-08T07:52:14.302Z,44.73
2023-02-08T07:54:41.108Z,40.63
2023-02-08T07:57:08.385Z,39.47
2023-02-08T07:59:35.222Z,45.63
2023-02-08T08:02:02.244Z,42.37
2023-02-08T08:04:29.006Z,66.33
2023-02-08T08:06:55.899Z,37.57
2023-02-08T08:09:24.423Z,37.80
2023-02-08T08:11:51.290Z,40.10
2023-02-08T08:14:18.674Z,33.63
2023-02-08T08:16:45.485Z,35.93
2023-02-08T08:19:12.276Z,36.77
2023-02-08T08:21:39.555Z,36.63
2023-02-08T08:24:06.464Z,40.37
2023-02-08T08:26:33.429Z,52.33
2023-02-08T08:29:00.324Z,51.10
2023-02-08T08:31:27.378Z,32.00
2023-02-08T08:33:55.744Z,32.13
2023-02-08T08:36:22.521Z,31.30
2023-02-08T08:38:49.326Z,34.47
2023-02-08T08:41:22.471Z,32.57
2023-02-08T08:43:49.345Z,30.13
2023-02-08T08:46:16.950Z,30.03
2023-02-08T08:48:43.969Z,31.77
2023-02-08T08:51:10.845Z,30.37
2023-02-08T08:53:38.068Z,34.10
2023-02-08T08:56:05.470Z,33.43
2023-02-08T08:58:32.431Z,31.67
2023-02-08T09:01:00.398Z,30.20
2023-02-08T09:03:28.562Z,34.43
2023-02-08T09:05:55.668Z,34.90
2023-02-08T09:08:22.530Z,41.20
2023-02-08T09:10:49.644Z,29.13
2023-02-08T09:13:19.701Z,28.67
2023-02-08T09:15:46.922Z,28.77
2023-02-08T09:18:13.827Z,25.97
2023-02-08T09:20:40.894Z,25.67
2023-02-08T09:23:07.856Z,22.80
2023-02-08T09:25:36.156Z,27.03
2023-02-08T09:28:02.971Z,24.27
2023-02-08T09:30:29.953Z,23.10
2023-02-08T09:32:56.770Z,23.53
2023-02-08T09:35:23.703Z,18.07
2023-02-08T09:37:55.491Z,18.77
2023-02-08T09:40:23.639Z,21.20
2023-02-08T09:43:04.472Z,20.07
2023-02-08T09:45:43.054Z,17.90
2023-02-08T09:48:41.017Z,17.30
2023-02-08T09:51:07.876Z,18.87
2023-02-08T09:53:36.229Z,17.63
2023-02-08T09:56:04.767Z,20.47
2023-02-08T09:58:39.669Z,17.83
2023-02-08T10:01:10.734Z,14.93
2023-02-08T10:03:39.093Z,17.80
2023-02-08T10:06:06.957Z,16.17
2023-02-08T10:08:35.493Z,15.27
2023-02-08T10:11:02.592Z,17.93
2023-02-08T10:13:41.430Z,16.07
2023-02-08T10:16:20.362Z,14.80
2023-02-08T10:18:52.580Z,16.10
2023-02-08T10:21:28.380Z,16.17
2023-02-08T10:24:06.090Z,17.13
2023-02-08T10:26:38.978Z,18.27
2023-02-08T10:29:08.628Z,15.43
2023-02-08T10:31:58.828Z,15.23
2023-02-08T10:34:31.954Z,14.73
2023-02-08T10:37:01.371Z,9.47
2023-02-08T10:39:30.428Z,6.83
2023-02-08T10:41:57.252Z,12.47
2023-02-08T10:44:33.450Z,10.57
2023-02-08T10:47:20.432Z,11.53
2023-02-08T10:50:06.085Z,11.47
2023-02-08T10:52:33.172Z,12.13
2023-02-08T10:55:00.077Z,13.37
2023-02-08T10:57:32.656Z,13.73
2023-02-08T11:00:04.482Z,11.80
2023-02-08T11:02:35.818Z,11.90
2023-02-08T11:05:04.769Z,12.13
2023-02-08T11:07:31.930Z,11.63
2023-02-08T11:10:13.624Z,12.40
2023-02-08T11:12:41.921Z,10.87
2023-02-08T11:15:22.196Z,10.20
2023-02-08T11:17:53.425Z,10.70
2023-02-08T11:20:22.609Z,9.77
2023-02-08T11:22:49.445Z,11.00
2023-02-08T11:25:31.691Z,9.47
2023-02-08T11:28:00.513Z,15.63
2023-02-08T11:30:27.501Z,16.87
2023-02-08T11:33:14.577Z,13.87
2023-02-08T11:35:41.928Z,12.37
2023-02-08T11:38:18.094Z,14.50
2023-02-08T11:40:46.128Z,18.83
2023-02-08T11:43:21.638Z,13.63
2023-02-08T11:45:48.760Z,10.40
2023-02-08T11:48:26.567Z,13.07
2023-02-08T11:50:54.747Z,13.00
2023-02-08T11:53:33.641Z,12.20
2023-02-08T11:56:06.446Z,13.83
2023-02-08T11:58:33.508Z,9.83
2023-02-08T12:01:03.166Z,13.53
2023-02-08T12:03:36.331Z,14.20
2023-02-08T12:06:21.842Z,12.33
2023-02-08T12:09:08.919Z,13.73
2023-02-08T12:11:37.046Z,20.17
2023-02-08T12:14:03.938Z,18.77
2023-02-08T12:16:43.429Z,13.80
2023-02-08T12:19:16.543Z,17.63
2023-02-08T12:21:44.575Z,14.93
2023-02-08T12:24:17.310Z,12.77
2023-02-08T12:27:00.573Z,14.07
2023-02-08T12:29:47.982Z,8.37
2023-02-08T12:32:33.240Z,11.17
2023-02-08T12:35:29.524Z,6.33
2023-02-08T12:38:25.807Z,6.50
2023-02-08T12:40:58.890Z,6.80
2023-02-08T12:43:31.892Z,6.80
2023-02-08T12:46:10.878Z,6.03
2023-02-08T12:48:47.125Z,6.07
2023-02-08T12:51:16.847Z,6.70
2023-02-08T12:53:46.019Z,6.83
2023-02-08T12:56:18.852Z,6.73
2023-02-08T12:58:46.935Z,6.63
2023-02-08T13:01:40.027Z,6.57
2023-02-08T13:04:08.595Z,5.37
2023-02-08T13:06:43.022Z,5.60
2023-02-08T13:09:30.172Z,6.47
2023-02-08T13:12:02.687Z,5.57
2023-02-08T13:14:43.271Z,5.50
2023-02-08T13:17:28.196Z,6.30
2023-02-08T13:20:01.124Z,8.63
2023-02-08T13:22:30.624Z,7.13
2023-02-08T13:25:06.934Z,7.50
2023-02-08T13:27:34.684Z,7.53
2023-02-08T13:30:02.013Z,7.80
2023-02-08T13:32:31.163Z,6.30
2023-02-08T13:35:18.289Z,7.17
2023-02-08T13:38:11.447Z,4.90
2023-02-08T13:40:38.637Z,5.93
2023-02-08T13:43:23.335Z,5.87
2023-02-08T13:45:59.153Z,6.07
2023-02-08T13:48:27.374Z,5.93
2023-02-08T13:50:54.732Z,6.00
2023-02-08T13:53:39.807Z,7.20
2023-02-08T13:56:10.598Z,8.20
2023-02-08T13:58:49.767Z,6.77
2023-02-08T14:01:16.601Z,6.57
2023-02-08T14:03:43.589Z,6.30
2023-02-08T14:06:26.464Z,6.30
2023-02-08T14:08:56.870Z,7.73
2023-02-08T14:11:42.857Z,7.60
2023-02-08T14:14:12.423Z,7.37
2023-02-08T14:16:40.002Z,8.60
2023-02-08T14:19:21.391Z,7.50
2023-02-08T14:22:08.634Z,16.73
2023-02-08T14:24:39.090Z,19.27
2023-02-08T14:27:07.146Z,9.83
2023-02-08T14:29:35.922Z,7.70
2023-02-08T14:32:03.175Z,7.63
2023-02-08T14:34:34.906Z,8.37
2023-02-08T14:37:06.787Z,8.83
2023-02-08T14:39:34.953Z,10.43
2023-02-08T14:42:08.893Z,7.33
2023-02-08T14:44:38.722Z,8.10
2023-02-08T14:47:12.244Z,9.33
2023-02-08T14:49:44.184Z,9.37
2023-02-08T14:52:15.907Z,8.43
2023-02-08T14:55:02.978Z,9.47
2023-02-08T14:57:31.837Z,7.33
2023-02-08T15:00:01.283Z,7.73
2023-02-08T15:02:31.662Z,8.23
2023-02-08T15:04:59.122Z,8.57
2023-02-08T15:07:44.611Z,8.10
2023-02-08T15:10:13.015Z,10.02
2023-02-08T15:12:41.112Z,8.17
2023-02-08T15:15:21.378Z,8.13
2023-02-08T15:17:50.362Z,9.17
2023-02-08T15:20:21.938Z,8.20
2023-02-08T15:22:48.852Z,8.17
2023-02-08T15:25:23.650Z,8.03
2023-02-08T15:27:52.017Z,7.53
2023-02-08T15:30:27.942Z,8.03
2023-02-08T15:32:54.876Z,8.43
2023-02-08T15:35:23.148Z,8.10
2023-02-08T15:37:50.169Z,8.50
2023-02-08T15:40:24.927Z,8.53
2023-02-08T15:42:51.813Z,8.33
2023-02-08T15:45:26.617Z,8.27
2023-02-08T15:47:53.757Z,7.93
2023-02-08T15:50:22.249Z,9.03
2023-02-08T15:52:51.989Z,10.00
2023-02-08T15:55:18.924Z,10.43
2023-02-08T15:58:09.155Z,10.37
2023-02-08T16:00:37.405Z,9.57
2023-02-08T16:03:09.804Z,9.77
2023-02-08T16:05:36.957Z,9.40
2023-02-08T16:08:04.452Z,9.57
2023-02-08T16:10:37.025Z,9.43
2023-02-08T16:13:06.335Z,9.97
2023-02-08T16:15:38.465Z,9.13
2023-02-08T16:18:05.402Z,9.60
2023-02-08T16:20:34.693Z,11.17
2023-02-08T16:23:23.569Z,12.90
2023-02-08T16:25:51.221Z,12.37
2023-02-08T16:28:28.448Z,19.07
2023-02-08T16:30:59.795Z,27.70
2023-02-08T16:33:27.097Z,20.73
2023-02-08T16:35:56.792Z,20.70
2023-02-08T16:38:23.872Z,21.97
2023-02-08T16:40:56.515Z,21.67
2023-02-08T16:43:25.134Z,21.50
2023-02-08T16:46:10.842Z,24.47
2023-02-08T16:48:41.730Z,26.10
2023-02-08T16:51:22.150Z,22.77
2023-02-08T16:53:49.841Z,24.33
2023-02-08T16:56:16.671Z,17.73
2023-02-08T16:58:43.553Z,15.97
2023-02-08T17:01:12.012Z,18.13
2023-02-08T17:03:38.959Z,19.00
2023-02-08T17:06:06.129Z,23.53
2023-02-08T17:08:35.969Z,24.87
2023-02-08T17:11:02.932Z,28.17
2023-02-08T17:13:29.796Z,24.90
2023-02-08T17:15:58.897Z,26.43
2023-02-08T17:18:25.671Z,27.60
2023-02-08T17:20:57.964Z,26.63
2023-02-08T17:23:25.023Z,21.73
2023-02-08T17:25:52.454Z,22.80
2023-02-08T17:28:20.848Z,26.70
2023-02-08T17:30:49.070Z,18.13
2023-02-08T17:33:19.148Z,15.93
2023-02-08T17:35:47.312Z,15.73
2023-02-08T17:38:15.680Z,14.10
2023-02-08T17:40:43.246Z,14.93
2023-02-08T17:43:10.488Z,14.60
2023-02-08T17:45:40.031Z,14.67
2023-02-08T17:48:07.074Z,15.63
2023-02-08T17:50:34.233Z,15.67
2023-02-08T17:53:01.153Z,15.87
2023-02-08T17:55:28.026Z,15.43
2023-02-08T17:57:54.787Z,15.60
2023-02-08T18:00:22.654Z,14.63
2023-02-08T18:02:51.324Z,16.03
2023-02-08T18:05:19.464Z,14.23
2023-02-08T18:07:46.454Z,16.57
2023-02-08T18:10:15.604Z,16.57
2023-02-08T18:12:43.020Z,15.60
2023-02-08T18:15:12.331Z,14.50
2023-02-08T18:17:39.766Z,15.97
2023-02-08T18:20:07.376Z,16.23
2023-02-08T18:22:34.426Z,17.63
2023-02-08T18:25:03.299Z,15.07
2023-02-08T18:27:30.382Z,15.43
2023-02-08T18:29:57.412Z,16.33
2023-02-08T18:32:25.902Z,17.07
2023-02-08T18:34:52.689Z,17.00
2023-02-08T18:37:19.553Z,17.90
2023-02-08T18:39:46.397Z,17.87
2023-02-08T18:42:13.316Z,19.87
2023-02-08T18:44:40.165Z,18.60
2023-02-08T18:47:07.887Z,19.50
2023-02-08T18:49:40.968Z,20.20
2023-02-08T18:52:12.379Z,22.83
2023-02-08T18:54:39.863Z,22.53
2023-02-08T18:57:09.707Z,22.37
2023-02-08T18:59:37.131Z,24.50
2023-02-08T19:02:04.916Z,23.60
2023-02-08T19:04:36.339Z,31.00
2023-02-08T19:07:04.157Z,29.13
2023-02-08T19:09:31.229Z,26.40
2023-02-08T19:11:58.178Z,27.77
2023-02-08T19:14:25.021Z,23.10
2023-02-08T19:16:52.073Z,26.43
2023-02-08T19:19:19.105Z,26.40
2023-02-08T19:21:46.105Z,26.47
2023-02-08T19:24:15.140Z,23.10
2023-02-08T19:26:42.594Z,21.77
2023-02-08T19:29:13.420Z,21.20
2023-02-08T19:31:44.380Z,18.90
2023-02-08T19:34:11.695Z,19.30
2023-02-08T19:36:40.958Z,20.37
2023-02-08T19:39:08.505Z,20.50
2023-02-08T19:41:36.667Z,19.97
2023-02-08T19:44:05.562Z,19.53
2023-02-08T19:46:34.673Z,18.87
2023-02-08T19:49:02.081Z,20.27
2023-02-08T19:51:32.222Z,22.00
2023-02-08T19:54:01.245Z,21.23
2023-02-08T19:56:31.371Z,20.73
2023-02-08T19:58:58.307Z,21.17
2023-02-08T20:01:25.759Z,20.43
2023-02-08T20:03:53.850Z,21.07
2023-02-08T20:06:22.620Z,20.27
2023-02-08T20:08:49.749Z,22.53
2023-02-08T20:11:27.601Z,22.90
2023-02-08T20:13:55.276Z,24.07
2023-02-08T20:16:22.386Z,23.73
2023-02-08T20:18:49.838Z,24.63
2023-02-08T20:21:19.886Z,22.73
2023-02-08T20:23:50.262Z,24.03
2023-02-08T20:26:18.865Z,24.40
2023-02-08T20:28:47.755Z,24.83
2023-02-08T20:31:15.923Z,25.67
2023-02-08T20:33:43.360Z,28.80
2023-02-08T20:36:12.207Z,27.67
2023-02-08T20:38:40.713Z,29.07
2023-02-08T20:41:09.110Z,27.47
2023-02-08T20:43:36.419Z,27.87
2023-02-08T20:46:08.014Z,28.80
2023-02-08T20:48:35.264Z,29.10
2023-02-08T20:51:09.711Z,30.63
2023-02-08T20:53:37.971Z,30.43
2023-02-08T20:56:06.407Z,32.10
2023-02-08T20:58:33.628Z,31.33
2023-02-08T21:01:00.778Z,32.10
2023-02-08T21:03:27.820Z,33.13
2023-02-08T21:05:54.636Z,31.37
2023-02-08T21:08:21.594Z,33.13
2023-02-08T21:10:48.378Z,34.93
2023-02-08T21:13:15.361Z,35.60
2023-02-08T21:15:45.607Z,39.70
2023-02-08T21:18:12.771Z,41.07
2023-02-08T21:20:40.326Z,37.90
2023-02-08T21:23:07.390Z,35.67
2023-02-08T21:25:34.169Z,35.03
2023-02-08T21:28:01.109Z,34.07
2023-02-08T21:30:28.067Z,33.80
2023-02-08T21:32:54.989Z,31.47
2023-02-08T21:35:21.818Z,34.33
2023-02-08T21:37:48.812Z,33.90
2023-02-08T21:40:15.738Z,32.53
2023-02-08T21:42:42.556Z,34.07
2023-02-08T21:45:09.949Z,32.80
2023-02-08T21:47:37.076Z,32.77
2023-02-08T21:50:22.677Z,31.07
2023-02-08T21:53:08.046Z,36.90
2023-02-08T21:55:35.530Z,35.47
2023-02-08T21:58:02.322Z,33.70
2023-02-08T22:00:29.319Z,35.20
2023-02-08T22:02:56.216Z,37.73
2023-02-08T22:05:42.040Z,97.80
2023-02-08T22:08:08.983Z,40.33
2023-02-08T22:10:36.379Z,32.80
2023-02-08T22:13:03.259Z,29.43
2023-02-08T22:15:30.382Z,31.27
2023-02-08T22:18:01.778Z,31.83
2023-02-08T22:20:29.525Z,32.83
2023-02-08T22:22:56.441Z,43.53
2023-02-08T22:25:23.781Z,41.23
2023-02-08T22:27:50.646Z,36.97
2023-02-08T22:30:18.536Z,41.60
2023-02-08T22:32:46.140Z,54.20
2023-02-08T22:35:13.429Z,40.17
2023-02-08T22:37:40.635Z,38.00
2023-02-08T22:40:08.124Z,34.40
2023-02-08T22:42:35.053Z,38.33
2023-02-08T22:45:01.900Z,55.00
2023-02-08T22:47:28.814Z,75.50
2023-02-08T22:49:58.862Z,69.47
2023-02-08T22:52:26.436Z,55.67
2023-02-08T22:54:53.585Z,45.43
2023-02-08T22:57:20.805Z,82.77
2023-02-08T22:59:47.908Z,69.67
2023-02-08T23:02:17.773Z,71.63
2023-02-08T23:04:44.648Z,91.57
2023-02-08T23:07:11.529Z,78.60
2023-02-08T23:09:38.380Z,42.73
2023-02-08T23:12:05.354Z,36.60
2023-02-08T23:14:33.023Z,34.83
2023-02-08T23:17:00.332Z,34.07
2023-02-08T23:19:27.274Z,33.17
2023-02-08T23:21:54.452Z,33.03
2023-02-08T23:24:21.325Z,32.97
2023-02-08T23:26:48.544Z,32.90
2023-02-08T23:29:15.597Z,32.63
2023-02-08T23:31:42.765Z,33.77
2023-02-08T23:34:11.646Z,33.70
2023-02-08T23:36:38.998Z,33.40
2023-02-08T23:39:06.252Z,33.80
2023-02-08T23:41:33.136Z,32.43
2023-02-08T23:43:59.909Z,31.70
2023-02-08T23:46:28.203Z,33.43
2023-02-08T23:48:55.169Z,29.80
2023-02-08T23:51:22.781Z,36.60
2023-02-08T23:53:50.056Z,34.27
2023-02-08T23:56:18.534Z,35.03
2023-02-08T23:58:46.784Z,34.60
